sensor_id;sensor_type;location;lat;lon;timestamp;P1;P4;P2;P0;N10;N4;N25;N1;N05;TS
44530;SPS30;30240;47.418;0.700;2023-04-15T00:01:03;1.7338245;;1.6964061;;;;;;;
44530;SPS30;30240;47.418;0.700;2023-04-15T00:03:28;1.3784726;;1.3586632;;;;;;;
44530;SPS30;30240;47.418;0.700;2023-04-15T00:05:53;1.4499496;;1.4376727;;;;;;;
44530;SPS30;30240;47.418;0.700;2023-04-15T00:08:18;1.4970704;;1.4833527;;;;;;;
44530;SPS30;30240;47.418;0.700;2023-04-15T00:10:43;1.6017221;;1.58482;;;;;;;
44530;SPS30;30240;47.418;0.700;2023-04-15T00:13:08;1.6017221;;1.58482;;;;;;;
44530;SPS30;30240;47.418;0.700;2023-04-15T00:15:33;1.4347844;;1.4039493;;;;;;;
44530;SPS30;30240;47.418;0.700;2023-04-15T00:17:58;1.5750072;;1.5432844;;;;;;;
44530;SPS30;30240;47.418;0.700;2023-04-15T00:20:24;1.9381346;;1.9085104;;;;;;;
44530;SPS30;30240;47.418;0.700;2023-04-15T00:22:48;1.2952287;;1.2703229;;;;;;;
44530;SPS30;30240;47.418;0.700;2023-04-15T00:25:13;1.3226488;;1.282374;;;;;;;
44530;SPS30;30240;47.418;0.700;2023-04-15T00:27:38;1.3226488;;1.282374;;;;;;;
44530;SPS30;30240;47.418;0.700;2023-04-15T00:30:04;1.3745272;;1.3444434;;;;;;;
44530;SPS30;30240;47.418;0.700;2023-04-15T00:32:28;1.4634022;;1.4288821;;;;;;;
44530;SPS30;30240;47.418;0.700;2023-04-15T00:34:53;1.6428307;;1.5961921;;;;;;;
44530;SPS30;30240;47.418;0.700;2023-04-15T00:37:18;1.4379926;;1.3766087;;;;;;;
44530;SPS30;30240;47.418;0.700;2023-04-15T00:39:43;1.4379926;;1.3766087;;;;;;;
44530;SPS30;30240;47.418;0.700;2023-04-15T00:42:08;1.3338364;;1.288445;;;;;;;
44530;SPS30;30240;47.418;0.700;2023-04-15T00:44:33;1.26328;;1.2084472;;;;;;;
44530;SPS30;30240;47.418;0.700;2023-04-15T00:46:59;1.5059965;;1.4356166;;;;;;;
44530;SPS30;30240;47.418;0.700;2023-04-15T00:49:23;1.3034022;;1.2381963;;;;;;;
44530;SPS30;30240;47.418;0.700;2023-04-15T00:51:48;1.3034022;;1.2381963;;;;;;;
44530;SPS30;30240;47.418;0.700;2023-04-15T00:54:13;1.624701;;1.5362586;;;;;;;
44530;SPS30;30240;47.418;0.700;2023-04-15T00:56:38;1.4055377;;1.3419285;;;;;;;
44530;SPS30;30240;47.418;0.700;2023-04-15T00:59:03;1.1480621;;1.1065685;;;;;;;
44530;SPS30;30240;47.418;0.700;2023-04-15T01:01:28;1.2082995;;1.1637814;;;;;;;
44530;SPS30;30240;47.418;0.700;2023-04-15T01:03:55;1.2082995;;1.1637814;;;;;;;
44530;SPS30;30240;47.418;0.700;2023-04-15T01:06:18;0.9740581;;0.9391225;;;;;;;
44530;SPS30;30240;47.418;0.700;2023-04-15T01:08:43;1.1431602;;1.1044263;;;;;;;
44530;SPS30;30240;47.418;0.700;2023-04-15T01:11:08;0.8033243;;0.7737659;;;;;;;
44530;SPS30;30240;47.418;0.700;2023-04-15T01:13:34;1.1185303;;1.0843776;;;;;;;
44530;SPS30;30240;47.418;0.700;2023-04-15T01:15:59;1.1185303;;1.0843776;;;;;;;
44530;SPS30;30240;47.418;0.700;2023-04-15T01:18:23;1.0346677;;1.0038154;;;;;;;
44530;SPS30;30240;47.418;0.700;2023-04-15T01:20:48;0.93560654;;0.91253674;;;;;;;
44530;SPS30;30240;47.418;0.700;2023-04-15T01:23:13;0.9245408;;0.9068031;;;;;;;
44530;SPS30;30240;47.418;0.700;2023-04-15T01:25:38;1.0697839;;1.0521462;;;;;;;
44530;SPS30;30240;47.418;0.700;2023-04-15T01:28:03;1.0697839;;1.0521462;;;;;;;
44530;SPS30;30240;47.418;0.700;2023-04-15T01:30:32;0.7956648;;0.7861742;;;;;;;
44530;SPS30;30240;47.418;0.700;2023-04-15T01:32:53;0.9991167;;0.98154485;;;;;;;
44530;SPS30;30240;47.418;0.700;2023-04-15T01:35:18;1.089732;;1.0710561;;;;;;;
44530;SPS30;30240;47.418;0.700;2023-04-15T01:37:43;1.1190481;;1.1002082;;;;;;;
44530;SPS30;30240;47.418;0.700;2023-04-15T01:40:09;1.1190481;;1.1002082;;;;;;;
44530;SPS30;30240;47.418;0.700;2023-04-15T01:42:34;0.97563255;;0.96436596;;;;;;;
44530;SPS30;30240;47.418;0.700;2023-04-15T01:44:58;1.271989;;1.2612038;;;;;;;
44530;SPS30;30240;47.418;0.700;2023-04-15T01:47:23;1.429058;;1.4189171;;;;;;;
44530;SPS30;30240;47.418;0.700;2023-04-15T01:49:48;1.1662526;;1.1555375;;;;;;;
44530;SPS30;30240;47.418;0.700;2023-04-15T01:52:13;1.2710762;;1.2579156;;;;;;;
44530;SPS30;30240;47.418;0.700;2023-04-15T01:54:38;1.2710762;;1.2579156;;;;;;;
44530;SPS30;30240;47.418;0.700;2023-04-15T01:57:03;1.1556146;;1.1393273;;;;;;;
44530;SPS30;30240;47.418;0.700;2023-04-15T01:59:29;1.4404533;;1.418363;;;;;;;
44530;SPS30;30240;47.418;0.700;2023-04-15T02:01:53;1.7508537;;1.7508537;;;;;;;
44530;SPS30;30240;47.418;0.700;2023-04-15T02:04:19;1.3036052;;1.3036052;;;;;;;
44530;SPS30;30240;47.418;0.700;2023-04-15T02:06:43;1.3036052;;1.3036052;;;;;;;
44530;SPS30;30240;47.418;0.700;2023-04-15T02:09:08;1.7735043;;1.7735043;;;;;;;
44530;SPS30;30240;47.418;0.700;2023-04-15T02:11:33;1.3518492;;1.3518492;;;;;;;
44530;SPS30;30240;47.418;0.700;2023-04-15T02:13:59;1.8490819;;1.8490819;;;;;;;
44530;SPS30;30240;47.418;0.700;2023-04-15T02:16:23;1.5086887;;1.5086887;;;;;;;
44530;SPS30;30240;47.418;0.700;2023-04-15T02:18:48;1.5086887;;1.5086887;;;;;;;
44530;SPS30;30240;47.418;0.700;2023-04-15T02:21:13;1.9240887;;1.9240887;;;;;;;
44530;SPS30;30240;47.418;0.700;2023-04-15T02:23:38;1.7005994;;1.7005994;;;;;;;
44530;SPS30;30240;47.418;0.700;2023-04-15T02:26:03;1.8698857;;1.8698857;;;;;;;
44530;SPS30;30240;47.418;0.700;2023-04-15T02:28:28;1.7824304;;1.7824304;;;;;;;
44530;SPS30;30240;47.418;0.700;2023-04-15T02:30:53;1.7824304;;1.7824304;;;;;;;
44530;SPS30;30240;47.418;0.700;2023-04-15T02:33:19;1.9426284;;1.9426284;;;;;;;
44530;SPS30;30240;47.418;0.700;2023-04-15T02:35:43;2.1660013;;2.1660013;;;;;;;
44530;SPS30;30240;47.418;0.700;2023-04-15T02:38:08;1.8757;;1.8757;;;;;;;
44530;SPS30;30240;47.418;0.700;2023-04-15T02:40:33;1.8440545;;1.8440545;;;;;;;
44530;SPS30;30240;47.418;0.700;2023-04-15T02:42:58;1.8440545;;1.8440545;;;;;;;
44530;SPS30;30240;47.418;0.700;2023-04-15T02:45:23;2.1095102;;2.1095102;;;;;;;
44530;SPS30;30240;47.418;0.700;2023-04-15T02:47:49;2.0255463;;2.0255463;;;;;;;
44530;SPS30;30240;47.418;0.700;2023-04-15T02:50:13;1.4820458;;1.4820458;;;;;;;
44530;SPS30;30240;47.418;0.700;2023-04-15T02:52:38;1.7554793;;1.7554793;;;;;;;
44530;SPS30;30240;47.418;0.700;2023-04-15T02:55:04;1.7554793;;1.7554793;;;;;;;
44530;SPS30;30240;47.418;0.700;2023-04-15T02:57:28;1.4153371;;1.4153371;;;;;;;
44530;SPS30;30240;47.418;0.700;2023-04-15T02:59:53;1.9323354;;1.9323354;;;;;;;
44530;SPS30;30240;47.418;0.700;2023-04-15T03:02:18;1.9999812;;1.9999812;;;;;;;
44530;SPS30;30240;47.418;0.700;2023-04-15T03:04:43;1.3052845;;1.3052845;;;;;;;
44530;SPS30;30240;47.418;0.700;2023-04-15T03:07:08;1.3052845;;1.3052845;;;;;;;
44530;SPS30;30240;47.418;0.700;2023-04-15T03:09:33;1.6091814;;1.6091814;;;;;;;
44530;SPS30;30240;47.418;0.700;2023-04-15T03:11:58;1.4878943;;1.4878943;;;;;;;
44530;SPS30;30240;47.418;0.700;2023-04-15T03:14:23;1.7749032;;1.7749032;;;;;;;
44530;SPS30;30240;47.418;0.700;2023-04-15T03:16:48;1.6193112;;1.6193112;;;;;;;
44530;SPS30;30240;47.418;0.700;2023-04-15T03:19:13;1.6193112;;1.6193112;;;;;;;
44530;SPS30;30240;47.418;0.700;2023-04-15T03:21:38;1.5491271;;1.5163956;;;;;;;
44530;SPS30;30240;47.418;0.700;2023-04-15T03:24:04;1.5677707;;1.5299169;;;;;;;
44530;SPS30;30240;47.418;0.700;2023-04-15T03:26:29;1.5318522;;1.4885081;;;;;;;
44530;SPS30;30240;47.418;0.700;2023-04-15T03:28:53;1.6303425;;1.5790164;;;;;;;
44530;SPS30;30240;47.418;0.700;2023-04-15T03:31:18;1.5605496;;1.4951255;;;;;;;
44530;SPS30;30240;47.418;0.700;2023-04-15T03:33:43;1.5605496;;1.4951255;;;;;;;
44530;SPS30;30240;47.418;0.700;2023-04-15T03:36:08;0.97116244;;0.9268483;;;;;;;
44530;SPS30;30240;47.418;0.700;2023-04-15T03:38:33;1.3909994;;1.3366834;;;;;;;
44530;SPS30;30240;47.418;0.700;2023-04-15T03:40:58;0.9742881;;0.9342953;;;;;;;
44530;SPS30;30240;47.418;0.700;2023-04-15T03:43:23;1.155787;;1.1074264;;;;;;;
44530;SPS30;30240;47.418;0.700;2023-04-15T03:45:48;1.155787;;1.1074264;;;;;;;
44530;SPS30;30240;47.418;0.700;2023-04-15T03:48:13;0.89252687;;0.84266305;;;;;;;
44530;SPS30;30240;47.418;0.700;2023-04-15T03:50:38;1.0565438;;1.0049411;;;;;;;
44530;SPS30;30240;47.418;0.700;2023-04-15T03:53:03;1.0934672;;1.04765;;;;;;;
44530;SPS30;30240;47.418;0.700;2023-04-15T03:55:28;1.0310378;;0.9877765;;;;;;;
44530;SPS30;30240;47.418;0.700;2023-04-15T03:57:53;1.0310378;;0.9877765;;;;;;;
44530;SPS30;30240;47.418;0.700;2023-04-15T04:00:18;0.8202725;;0.7984639;;;;;;;
44530;SPS30;30240;47.418;0.700;2023-04-15T04:02:43;0.755385;;0.72413707;;;;;;;
44530;SPS30;30240;47.418;0.700;2023-04-15T04:05:08;0.9002978;;0.8651038;;;;;;;
44530;SPS30;30240;47.418;0.700;2023-04-15T04:07:33;0.5531053;;0.534427;;;;;;;
44530;SPS30;30240;47.418;0.700;2023-04-15T04:09:58;0.5531053;;0.534427;;;;;;;
44530;SPS30;30240;47.418;0.700;2023-04-15T04:12:23;0.6035578;;0.5838276;;;;;;;
44530;SPS30;30240;47.418;0.700;2023-04-15T04:14:48;0.8645958;;0.8385064;;;;;;;
44530;SPS30;30240;47.418;0.700;2023-04-15T04:17:13;0.74734795;;0.7195628;;;;;;;
44530;SPS30;30240;47.418;0.700;2023-04-15T04:19:38;0.53015745;;0.5075993;;;;;;;
44530;SPS30;30240;47.418;0.700;2023-04-15T04:22:03;0.53015745;;0.5075993;;;;;;;
44530;SPS30;30240;47.418;0.700;2023-04-15T04:24:28;0.8263432;;0.7873358;;;;;;;
44530;SPS30;30240;47.418;0.700;2023-04-15T04:26:53;1.0278249;;0.991465;;;;;;;
44530;SPS30;30240;47.418;0.700;2023-04-15T04:29:18;0.47363782;;0.4556026;;;;;;;
44530;SPS30;30240;47.418;0.700;2023-04-15T04:31:43;0.6392638;;0.61287826;;;;;;;
44530;SPS30;30240;47.418;0.700;2023-04-15T04:34:08;0.6392638;;0.61287826;;;;;;;
44530;SPS30;30240;47.418;0.700;2023-04-15T04:36:34;0.84671867;;0.81388414;;;;;;;
44530;SPS30;30240;47.418;0.700;2023-04-15T04:38:58;1.0621487;;1.0140448;;;;;;;
44530;SPS30;30240;47.418;0.700;2023-04-15T04:41:23;1.1135218;;1.0595286;;;;;;;
44530;SPS30;30240;47.418;0.700;2023-04-15T04:43:48;0.99056137;;0.93323606;;;;;;;
44530;SPS30;30240;47.418;0.700;2023-04-15T04:46:13;0.99056137;;0.93323606;;;;;;;
44530;SPS30;30240;47.418;0.700;2023-04-15T04:48:38;0.5950021;;0.55955154;;;;;;;
44530;SPS30;30240;47.418;0.700;2023-04-15T04:51:03;0.9571912;;0.8979558;;;;;;;
44530;SPS30;30240;47.418;0.700;2023-04-15T04:53:28;0.99736136;;0.9304207;;;;;;;
44530;SPS30;30240;47.418;0.700;2023-04-15T04:55:53;0.72970563;;0.6821314;;;;;;;
44530;SPS30;30240;47.418;0.700;2023-04-15T04:58:18;0.759856;;0.7136312;;;;;;;
44530;SPS30;30240;47.418;0.700;2023-04-15T05:00:43;0.759856;;0.7136312;;;;;;;
44530;SPS30;30240;47.418;0.700;2023-04-15T05:03:08;0.76540947;;0.7217924;;;;;;;
44530;SPS30;30240;47.418;0.700;2023-04-15T05:05:33;1.0613362;;0.9826316;;;;;;;
44530;SPS30;30240;47.418;0.700;2023-04-15T05:07:58;0.8356869;;0.7811827;;;;;;;
44530;SPS30;30240;47.418;0.700;2023-04-15T05:10:23;0.8695408;;0.81844443;;;;;;;
44530;SPS30;30240;47.418;0.700;2023-04-15T05:12:48;0.8695408;;0.81844443;;;;;;;
44530;SPS30;30240;47.418;0.700;2023-04-15T05:15:13;0.89515907;;0.8476735;;;;;;;
44530;SPS30;30240;47.418;0.700;2023-04-15T05:17:38;1.1262442;;1.058723;;;;;;;
44530;SPS30;30240;47.418;0.700;2023-04-15T05:20:04;1.0273771;;0.96283174;;;;;;;
44530;SPS30;30240;47.418;0.700;2023-04-15T05:22:28;0.9157917;;0.85723245;;;;;;;
44530;SPS30;30240;47.418;0.700;2023-04-15T05:24:53;0.9157917;;0.85723245;;;;;;;
44530;SPS30;30240;47.418;0.700;2023-04-15T05:27:18;1.1271391;;1.0594637;;;;;;;
44530;SPS30;30240;47.418;0.700;2023-04-15T05:29:43;0.84120893;;0.79010475;;;;;;;
44530;SPS30;30240;47.418;0.700;2023-04-15T05:32:08;1.0559021;;0.99811983;;;;;;;
44530;SPS30;30240;47.418;0.700;2023-04-15T05:34:33;1.677825;;1.569445;;;;;;;
44530;SPS30;30240;47.418;0.700;2023-04-15T05:36:58;1.677825;;1.569445;;;;;;;
44530;SPS30;30240;47.418;0.700;2023-04-15T05:39:23;0.93914944;;0.87253886;;;;;;;
44530;SPS30;30240;47.418;0.700;2023-04-15T05:41:48;1.2258271;;1.1439372;;;;;;;
44530;SPS30;30240;47.418;0.700;2023-04-15T05:44:13;0.74450463;;0.6934608;;;;;;;
44530;SPS30;30240;47.418;0.700;2023-04-15T05:46:38;0.94724804;;0.88197213;;;;;;;
44530;SPS30;30240;47.418;0.700;2023-04-15T05:49:03;0.94724804;;0.88197213;;;;;;;
44530;SPS30;30240;47.418;0.700;2023-04-15T05:51:28;1.0697333;;0.99234706;;;;;;;
44530;SPS30;30240;47.418;0.700;2023-04-15T05:53:53;0.8373127;;0.77529734;;;;;;;
44530;SPS30;30240;47.418;0.700;2023-04-15T05:56:19;1.0930895;;1.0036234;;;;;;;
44530;SPS30;30240;47.418;0.700;2023-04-15T05:58:43;1.2311721;;1.1415651;;;;;;;
44530;SPS30;30240;47.418;0.700;2023-04-15T06:01:08;1.2311721;;1.1415651;;;;;;;
44530;SPS30;30240;47.418;0.700;2023-04-15T06:03:33;1.0507694;;0.978741;;;;;;;
44530;SPS30;30240;47.418;0.700;2023-04-15T06:05:58;1.0457598;;0.98337096;;;;;;;
44530;SPS30;30240;47.418;0.700;2023-04-15T06:08:23;1.1069034;;1.0374361;;;;;;;
44530;SPS30;30240;47.418;0.700;2023-04-15T06:10:48;1.2409909;;1.1555789;;;;;;;
44530;SPS30;30240;47.418;0.700;2023-04-15T06:13:13;1.2409909;;1.1555789;;;;;;;
44530;SPS30;30240;47.418;0.700;2023-04-15T06:15:38;1.326552;;1.2376316;;;;;;;
44530;SPS30;30240;47.418;0.700;2023-04-15T06:18:03;0.942805;;0.8876969;;;;;;;
44530;SPS30;30240;47.418;0.700;2023-04-15T06:20:28;1.3298082;;1.2540803;;;;;;;
44530;SPS30;30240;47.418;0.700;2023-04-15T06:22:53;1.058093;;1.0061626;;;;;;;
44530;SPS30;30240;47.418;0.700;2023-04-15T06:25:18;1.058093;;1.0061626;;;;;;;
44530;SPS30;30240;47.418;0.700;2023-04-15T06:27:43;1.1431664;;1.092443;;;;;;;
44530;SPS30;30240;47.418;0.700;2023-04-15T06:30:09;1.3287214;;1.2732937;;;;;;;
44530;SPS30;30240;47.418;0.700;2023-04-15T06:32:33;1.1985954;;1.1557928;;;;;;;
44530;SPS30;30240;47.418;0.700;2023-04-15T06:34:58;1.149263;;1.106046;;;;;;;
44530;SPS30;30240;47.418;0.700;2023-04-15T06:37:23;1.1656924;;1.1217268;;;;;;;
44530;SPS30;30240;47.418;0.700;2023-04-15T06:39:48;1.1656924;;1.1217268;;;;;;;
44530;SPS30;30240;47.418;0.700;2023-04-15T06:42:13;1.2997484;;1.2504402;;;;;;;
44530;SPS30;30240;47.418;0.700;2023-04-15T06:44:38;1.1946219;;1.1497793;;;;;;;
44530;SPS30;30240;47.418;0.700;2023-04-15T06:47:03;0.9742653;;0.9452583;;;;;;;
44530;SPS30;30240;47.418;0.700;2023-04-15T06:49:28;1.1921704;;1.1610634;;;;;;;
44530;SPS30;30240;47.418;0.700;2023-04-15T06:51:53;1.1921704;;1.1610634;;;;;;;
44530;SPS30;30240;47.418;0.700;2023-04-15T06:54:18;0.8468789;;0.82277054;;;;;;;
44530;SPS30;30240;47.418;0.700;2023-04-15T06:56:43;1.462416;;1.3940874;;;;;;;
44530;SPS30;30240;47.418;0.700;2023-04-15T06:59:08;1.1300926;;1.0723587;;;;;;;
44530;SPS30;30240;47.418;0.700;2023-04-15T07:01:34;1.3917255;;1.3077805;;;;;;;
44530;SPS30;30240;47.418;0.700;2023-04-15T07:03:59;1.3917255;;1.3077805;;;;;;;
44530;SPS30;30240;47.418;0.700;2023-04-15T07:06:23;0.94546926;;0.8882418;;;;;;;
44530;SPS30;30240;47.418;0.700;2023-04-15T07:08:48;1.0928895;;1.0274173;;;;;;;
44530;SPS30;30240;47.418;0.700;2023-04-15T07:11:13;1.2171811;;1.1471223;;;;;;;
44530;SPS30;30240;47.418;0.700;2023-04-15T07:13:38;1.2637132;;1.1973116;;;;;;;
44530;SPS30;30240;47.418;0.700;2023-04-15T07:16:04;1.2637132;;1.1973116;;;;;;;
44530;SPS30;30240;47.418;0.700;2023-04-15T07:18:28;1.5291139;;1.4511759;;;;;;;
44530;SPS30;30240;47.418;0.700;2023-04-15T07:20:54;1.137472;;1.0777923;;;;;;;
44530;SPS30;30240;47.418;0.700;2023-04-15T07:23:18;1.0279015;;0.97028625;;;;;;;
44530;SPS30;30240;47.418;0.700;2023-04-15T07:25:43;1.4983134;;1.3953861;;;;;;;
44530;SPS30;30240;47.418;0.700;2023-04-15T07:28:08;1.4983134;;1.3953861;;;;;;;
44530;SPS30;30240;47.418;0.700;2023-04-15T07:30:34;1.3132843;;1.2112601;;;;;;;
44530;SPS30;30240;47.418;0.700;2023-04-15T07:32:58;1.582562;;1.4436175;;;;;;;
44530;SPS30;30240;47.418;0.700;2023-04-15T07:35:23;1.5639347;;1.4126569;;;;;;;
44530;SPS30;30240;47.418;0.700;2023-04-15T07:37:49;1.3936651;;1.2710512;;;;;;;
44530;SPS30;30240;47.418;0.700;2023-04-15T07:40:14;1.3936651;;1.2710512;;;;;;;
44530;SPS30;30240;47.418;0.700;2023-04-15T07:42:38;1.5724714;;1.4236253;;;;;;;
44530;SPS30;30240;47.418;0.700;2023-04-15T07:45:04;1.6915846;;1.5145501;;;;;;;
44530;SPS30;30240;47.418;0.700;2023-04-15T07:47:28;1.6556504;;1.5013584;;;;;;;
44530;SPS30;30240;47.418;0.700;2023-04-15T07:49:53;1.2560825;;1.147013;;;;;;;
44530;SPS30;30240;47.418;0.700;2023-04-15T07:52:19;1.2560825;;1.147013;;;;;;;
44530;SPS30;30240;47.418;0.700;2023-04-15T07:54:44;1.394461;;1.2702075;;;;;;;
44530;SPS30;30240;47.418;0.700;2023-04-15T07:57:08;1.2236673;;1.1002948;;;;;;;
44530;SPS30;30240;47.418;0.700;2023-04-15T07:59:34;1.5569375;;1.386712;;;;;;;
44530;SPS30;30240;47.418;0.700;2023-04-15T08:01:58;1.6864944;;1.5034695;;;;;;;
44530;SPS30;30240;47.418;0.700;2023-04-15T08:04:24;1.3221616;;1.1741132;;;;;;;
44530;SPS30;30240;47.418;0.700;2023-04-15T08:06:48;1.3221616;;1.1741132;;;;;;;
44530;SPS30;30240;47.418;0.700;2023-04-15T08:09:13;1.6126041;;1.4539235;;;;;;;
44530;SPS30;30240;47.418;0.700;2023-04-15T08:11:39;1.4601313;;1.3112175;;;;;;;
44530;SPS30;30240;47.418;0.700;2023-04-15T08:14:03;1.2960284;;1.1682334;;;;;;;
44530;SPS30;30240;47.418;0.700;2023-04-15T08:16:28;1.5389199;;1.4090278;;;;;;;
44530;SPS30;30240;47.418;0.700;2023-04-15T08:18:54;1.5389199;;1.4090278;;;;;;;
44530;SPS30;30240;47.418;0.700;2023-04-15T08:21:18;1.7895437;;1.6484355;;;;;;;
44530;SPS30;30240;47.418;0.700;2023-04-15T08:23:44;1.482989;;1.39074;;;;;;;
44530;SPS30;30240;47.418;0.700;2023-04-15T08:26:08;1.7962742;;1.6897342;;;;;;;
44530;SPS30;30240;47.418;0.700;2023-04-15T08:28:34;1.570612;;1.5051266;;;;;;;
44530;SPS30;30240;47.418;0.700;2023-04-15T08:30:59;1.570612;;1.5051266;;;;;;;
44530;SPS30;30240;47.418;0.700;2023-04-15T08:33:24;2.0403092;;1.9698364;;;;;;;
44530;SPS30;30240;47.418;0.700;2023-04-15T08:35:48;1.7456586;;1.6835642;;;;;;;
44530;SPS30;30240;47.418;0.700;2023-04-15T08:38:13;1.764208;;1.7012416;;;;;;;
44530;SPS30;30240;47.418;0.700;2023-04-15T08:40:39;1.4004403;;1.357801;;;;;;;
44530;SPS30;30240;47.418;0.700;2023-04-15T08:43:03;1.4004403;;1.357801;;;;;;;
44530;SPS30;30240;47.418;0.700;2023-04-15T08:45:28;1.7918109;;1.7461038;;;;;;;
44530;SPS30;30240;47.418;0.700;2023-04-15T08:47:54;1.9475261;;1.9142756;;;;;;;
44530;SPS30;30240;47.418;0.700;2023-04-15T08:50:19;1.8490651;;1.8140498;;;;;;;
44530;SPS30;30240;47.418;0.700;2023-04-15T08:52:43;1.7097914;;1.6946511;;;;;;;
44530;SPS30;30240;47.418;0.700;2023-04-15T08:55:08;1.7097914;;1.6946511;;;;;;;
44530;SPS30;30240;47.418;0.700;2023-04-15T08:57:33;1.8736917;;1.8324076;;;;;;;
44530;SPS30;30240;47.418;0.700;2023-04-15T08:59:59;1.9480202;;1.9049698;;;;;;;
44530;SPS30;30240;47.418;0.700;2023-04-15T09:02:24;2.758828;;2.7473476;;;;;;;
44530;SPS30;30240;47.418;0.700;2023-04-15T09:04:48;2.102145;;2.0862668;;;;;;;
44530;SPS30;30240;47.418;0.700;2023-04-15T09:07:13;2.102145;;2.0862668;;;;;;;
44530;SPS30;30240;47.418;0.700;2023-04-15T09:09:38;1.9067075;;1.9048392;;;;;;;
44530;SPS30;30240;47.418;0.700;2023-04-15T09:12:03;2.0196357;;2.0094259;;;;;;;
44530;SPS30;30240;47.418;0.700;2023-04-15T09:14:28;1.7485125;;1.7485125;;;;;;;
44530;SPS30;30240;47.418;0.700;2023-04-15T09:16:55;1.5248812;;1.5174303;;;;;;;
44530;SPS30;30240;47.418;0.700;2023-04-15T09:19:19;1.5248812;;1.5174303;;;;;;;
44530;SPS30;30240;47.418;0.700;2023-04-15T09:21:45;2.268123;;2.2548819;;;;;;;
44530;SPS30;30240;47.418;0.700;2023-04-15T09:24:08;1.8883468;;1.8883468;;;;;;;
44530;SPS30;30240;47.418;0.700;2023-04-15T09:26:34;1.9436069;;1.9436069;;;;;;;
44530;SPS30;30240;47.418;0.700;2023-04-15T09:29:02;1.8919713;;1.891935;;;;;;;
44530;SPS30;30240;47.418;0.700;2023-04-15T09:31:27;1.8919713;;1.891935;;;;;;;
44530;SPS30;30240;47.418;0.700;2023-04-15T09:33:53;2.4984164;;2.4868505;;;;;;;
44530;SPS30;30240;47.418;0.700;2023-04-15T09:36:13;2.0505521;;2.0349298;;;;;;;
44530;SPS30;30240;47.418;0.700;2023-04-15T09:38:43;1.9590716;;1.952759;;;;;;;
44530;SPS30;30240;47.418;0.700;2023-04-15T09:38:53;1.9590716;;1.952759;;;;;;;
44530;SPS30;30240;47.418;0.700;2023-04-15T09:41:03;1.542959;;1.542787;;;;;;;
44530;SPS30;30240;47.418;0.700;2023-04-15T09:41:09;1.542959;;1.542787;;;;;;;
44530;SPS30;30240;47.418;0.700;2023-04-15T09:41:15;1.542959;;1.542787;;;;;;;
44530;SPS30;30240;47.418;0.700;2023-04-15T09:43:36;2.1814547;;2.1814547;;;;;;;
44530;SPS30;30240;47.418;0.700;2023-04-15T09:45:53;2.1814547;;2.1814547;;;;;;;
44530;SPS30;30240;47.418;0.700;2023-04-15T09:48:19;1.7205667;;1.7205667;;;;;;;
44530;SPS30;30240;47.418;0.700;2023-04-15T09:50:43;2.0755439;;2.0755439;;;;;;;
44530;SPS30;30240;47.418;0.700;2023-04-15T09:53:09;1.6717664;;1.6717358;;;;;;;
44530;SPS30;30240;47.418;0.700;2023-04-15T09:55:33;1.6606576;;1.6530905;;;;;;;
44530;SPS30;30240;47.418;0.700;2023-04-15T09:57:58;1.6606576;;1.6530905;;;;;;;
44530;SPS30;30240;47.418;0.700;2023-04-15T10:00:23;2.3124702;;2.3124702;;;;;;;
44530;SPS30;30240;47.418;0.700;2023-04-15T10:02:49;2.4261467;;2.4261467;;;;;;;
44530;SPS30;30240;47.418;0.700;2023-04-15T10:05:14;2.0595508;;2.0595508;;;;;;;
44530;SPS30;30240;47.418;0.700;2023-04-15T10:07:38;1.8776898;;1.8776898;;;;;;;
44530;SPS30;30240;47.418;0.700;2023-04-15T10:10:04;1.8776898;;1.8776898;;;;;;;
44530;SPS30;30240;47.418;0.700;2023-04-15T10:12:29;1.7980797;;1.7980797;;;;;;;
44530;SPS30;30240;47.418;0.700;2023-04-15T10:14:55;2.0380666;;2.0348525;;;;;;;
44530;SPS30;30240;47.418;0.700;2023-04-15T10:17:20;2.0174117;;2.0174117;;;;;;;
44530;SPS30;30240;47.418;0.700;2023-04-15T10:19:43;1.7785645;;1.7785645;;;;;;;
44530;SPS30;30240;47.418;0.700;2023-04-15T10:22:09;1.7785645;;1.7785645;;;;;;;
44530;SPS30;30240;47.418;0.700;2023-04-15T10:24:33;2.3876774;;2.3876774;;;;;;;
44530;SPS30;30240;47.418;0.700;2023-04-15T10:26:59;2.4190867;;2.4190867;;;;;;;
44530;SPS30;30240;47.418;0.700;2023-04-15T10:29:24;2.0257964;;2.0257964;;;;;;;
44530;SPS30;30240;47.418;0.700;2023-04-15T10:31:48;2.1210797;;2.1210797;;;;;;;
44530;SPS30;30240;47.418;0.700;2023-04-15T10:34:14;2.1210797;;2.1210797;;;;;;;
44530;SPS30;30240;47.418;0.700;2023-04-15T10:36:38;1.9194521;;1.9117653;;;;;;;
44530;SPS30;30240;47.418;0.700;2023-04-15T10:39:06;2.4172897;;2.407966;;;;;;;
44530;SPS30;30240;47.418;0.700;2023-04-15T10:39:39;2.4172897;;2.407966;;;;;;;
44530;SPS30;30240;47.418;0.700;2023-04-15T10:41:29;3.1197593;;3.1037385;;;;;;;
44530;SPS30;30240;47.418;0.700;2023-04-15T10:43:54;2.2628765;;2.2628765;;;;;;;
44530;SPS30;30240;47.418;0.700;2023-04-15T10:46:20;2.2628765;;2.2628765;;;;;;;
44530;SPS30;30240;47.418;0.700;2023-04-15T10:48:47;2.0865784;;2.0865784;;;;;;;
44530;SPS30;30240;47.418;0.700;2023-04-15T10:51:08;1.7650223;;1.763632;;;;;;;
44530;SPS30;30240;47.418;0.700;2023-04-15T10:53:33;2.6410763;;2.6410763;;;;;;;
44530;SPS30;30240;47.418;0.700;2023-04-15T10:55:58;2.185864;;2.185864;;;;;;;
44530;SPS30;30240;47.418;0.700;2023-04-15T10:58:24;2.185864;;2.185864;;;;;;;
44530;SPS30;30240;47.418;0.700;2023-04-15T11:00:49;1.7995253;;1.7995253;;;;;;;
44530;SPS30;30240;47.418;0.700;2023-04-15T11:03:13;2.4189236;;2.4189236;;;;;;;
44530;SPS30;30240;47.418;0.700;2023-04-15T11:05:47;1.7404085;;1.7404085;;;;;;;
44530;SPS30;30240;47.418;0.700;2023-04-15T11:08:04;1.6836064;;1.6836064;;;;;;;
44530;SPS30;30240;47.418;0.700;2023-04-15T11:10:49;1.5336328;;1.53178;;;;;;;
44530;SPS30;30240;47.418;0.700;2023-04-15T11:12:55;1.5336328;;1.53178;;;;;;;
44530;SPS30;30240;47.418;0.700;2023-04-15T11:15:23;1.8301747;;1.8235264;;;;;;;
44530;SPS30;30240;47.418;0.700;2023-04-15T11:17:43;2.0586252;;2.05101;;;;;;;
44530;SPS30;30240;47.418;0.700;2023-04-15T11:20:09;1.95093;;1.9397027;;;;;;;
44530;SPS30;30240;47.418;0.700;2023-04-15T11:22:33;1.9611901;;1.9611901;;;;;;;
44530;SPS30;30240;47.418;0.700;2023-04-15T11:24:58;1.9611901;;1.9611901;;;;;;;
44530;SPS30;30240;47.418;0.700;2023-04-15T11:27:23;2.18692;;2.1782475;;;;;;;
44530;SPS30;30240;47.418;0.700;2023-04-15T11:29:49;1.9639751;;1.9639751;;;;;;;
44530;SPS30;30240;47.418;0.700;2023-04-15T11:32:13;2.6274247;;2.6274247;;;;;;;
44530;SPS30;30240;47.418;0.700;2023-04-15T11:34:38;1.6779678;;1.6779678;;;;;;;
44530;SPS30;30240;47.418;0.700;2023-04-15T11:37:04;1.6779678;;1.6779678;;;;;;;
44530;SPS30;30240;47.418;0.700;2023-04-15T11:39:28;1.6975613;;1.6975613;;;;;;;
44530;SPS30;30240;47.418;0.700;2023-04-15T11:41:53;1.9873165;;1.9873165;;;;;;;
44530;SPS30;30240;47.418;0.700;2023-04-15T11:44:18;2.1846783;;2.1846783;;;;;;;
44530;SPS30;30240;47.418;0.700;2023-04-15T11:46:43;2.1302536;;2.1302536;;;;;;;
44530;SPS30;30240;47.418;0.700;2023-04-15T11:49:08;2.1302536;;2.1302536;;;;;;;
44530;SPS30;30240;47.418;0.700;2023-04-15T11:51:34;1.5148306;;1.5148306;;;;;;;
44530;SPS30;30240;47.418;0.700;2023-04-15T11:53:58;1.8273355;;1.8273355;;;;;;;
44530;SPS30;30240;47.418;0.700;2023-04-15T11:56:24;1.5124167;;1.5124017;;;;;;;
44530;SPS30;30240;47.418;0.700;2023-04-15T11:58:51;1.7937361;;1.7782491;;;;;;;
44530;SPS30;30240;47.418;0.700;2023-04-15T12:01:13;1.7937361;;1.7782491;;;;;;;